Latest Weather Observations for Cunderdin Airport

IDW60801

Issued at 2:34 am WST Sunday 28 August 2016 (issued every 30 minutes, with the page automatically refreshed every 10 minutes)

About weather observations | Map of weather stations | Latest weather observations for WA | Other Formats
Station Details ID: 010286 Name: CUNDERDIN AIRFIELD Lat: -31.62 Lon: 117.22 Height: 216.7 m
Data from the previous 72 hours. | See also: Recent months at Cunderdin Airport
Date/Time
WST
Temp
°C
App
Temp
°C
Dew
Point
°C
Rel
Hum
%
Delta-T
°C
Wind Press
QNH
hPa
Press
MSL
hPa
Rain since
9am
mm
Dir  Spd
km/h
Gust
km/h
Spd
kts
Gust
kts
28/02:30am 8.2 3.7 6.8 91 0.7 WNW 20 26 11 14 1005.8 1005.8 0.6
28/02:00am 8.0 3.4 6.6 91 0.7 WNW 20 26 11 14 1005.6 1005.6 0.6
28/01:30am 8.1 3.7 6.6 90 0.7 WNW 19 26 10 14 1005.7 1005.7 0.6
28/01:00am 8.6 3.3 6.9 89 0.8 WNW 24 30 13 16 1005.6 1005.6 0.6
28/12:30am 9.1 3.8 6.9 86 1.0 W 24 30 13 16 1005.6 1005.6 0.6
28/12:00am 8.9 3.6 7.0 88 0.9 W 24 33 13 18 1005.4 1005.4 0.6
 
Date/Time
WST
Temp
°C
App
Temp
°C
Dew
Point
°C
Rel
Hum
%
Delta-T
°C
Wind Press
QNH
hPa
Press
MSL
hPa
Rain since
9am
mm
Dir  Spd
km/h
Gust
km/h
Spd
kts
Gust
kts
27/11:30pm 9.4 4.4 8.0 91 0.7 W 24 32 13 17 1005.3 1005.3 0.6
27/11:00pm 9.6 4.2 8.2 91 0.7 W 26 33 14 18 1005.1 1005.1 0.6
27/10:30pm 10.3 4.7 8.7 90 0.8 W 28 35 15 19 1005.2 1005.2 0.6
27/10:00pm 10.3 6.0 9.2 93 0.6 W 22 28 12 15 1005.3 1005.3 0.6
27/09:30pm 10.2 5.9 9.3 94 0.5 WNW 22 30 12 16 1005.2 1005.2 0.6
27/09:00pm 10.6 5.4 8.7 88 1.0 NNW 26 39 14 21 1005.1 1005.1 0.4
27/08:30pm 10.4 6.0 9.0 91 0.7 NNW 22 35 12 19 1004.8 1004.8 0.4
27/08:00pm 10.3 5.6 9.2 93 0.6 NW 24 43 13 23 1004.6 1004.7 0.4
27/07:42pm 10.6 5.1 9.0 90 0.8 WNW 28 46 15 25 1004.8 1004.8 0.4
27/07:30pm 10.9 5.7 8.7 86 1.1 NW 26 33 14 18 1004.5 1004.6 0.4
27/07:00pm 10.7 5.8 8.6 87 1.0 NW 24 32 13 17 1004.1 1004.2 0.4
27/06:30pm 10.6 5.3 8.4 86 1.1 WNW 26 35 14 19 1004.0 1004.1 0.4
27/06:00pm 10.9 5.2 8.5 85 1.2 WNW 28 43 15 23 1003.9 1004.0 0.4
27/05:30pm 12.3 6.3 8.8 79 1.8 WNW 30 41 16 22 1003.6 1003.7 0.4
27/05:05pm 13.0 6.2 7.7 70 2.6 W 33 52 18 28 1003.4 1003.5 0.4
27/05:00pm 12.9 5.7 7.8 71 2.5 WNW 35 48 19 26 1003.3 1003.4 0.4
27/04:34pm 13.3 6.3 8.4 72 2.5 W 35 54 19 29 1003.0 1003.0 0.4
27/04:30pm 13.5 6.8 8.1 70 2.7 W 33 46 18 25 1002.9 1002.9 0.4
27/04:00pm 14.6 7.2 8.3 66 3.2 W 37 50 20 27 1002.5 1002.5 0.4
27/03:37pm 14.6 7.7 8.8 68 3.0 W 35 54 19 29 1002.3 1002.3 0.4
27/03:30pm 14.2 6.5 8.8 70 2.8 W 39 54 21 29 1002.3 1002.3 0.4
27/03:00pm 14.7 7.1 9.1 69 2.9 W 39 54 21 29 1002.1 1002.1 0.4
27/02:49pm 15.7 8.2 9.6 67 3.2 WNW 39 57 21 31 1002.0 1002.0 0.4
27/02:30pm 15.7 9.3 10.7 72 2.7 W 35 44 19 24 1001.9 1001.9 0.4
27/02:08pm 16.1 9.6 10.4 69 3.0 W 35 56 19 30 1001.9 1001.9 0.4
27/02:00pm 15.6 9.5 11.8 78 2.1 WNW 35 50 19 27 1001.9 1001.9 0.4
27/01:38pm 13.9 7.3 11.4 85 1.3 NNW 37 54 20 29 1002.1 1002.1 0.4
27/01:33pm 14.8 9.1 11.8 82 1.6 NNW 33 54 18 29 1002.0 1002.0 0.4
27/01:30pm 15.2 9.2 10.8 75 2.4 NNW 33 54 18 29 1001.9 1001.9 0.4
27/01:00pm 15.0 8.7 11.0 77 2.2 N 35 54 19 29 1002.3 1002.3 0.4
27/12:30pm 15.3 8.5 9.4 68 3.1 NNW 35 61 19 33 1002.6 1002.6 0.4
27/12:02pm 15.1 9.2 10.5 74 2.4 NNW 32 50 17 27 1003.0 1003.0 0.4
27/12:00pm 15.7 10.1 11.5 76 2.3 NNW 32 44 17 24 1003.0 1003.0 0.4
27/11:48am 14.9 9.7 10.1 73 2.5 NNW 28 48 15 26 1002.9 1002.9 0.4
27/11:30am 14.0 10.0 11.7 86 1.2 NNW 24 30 13 16 1003.3 1003.4 0.4
27/11:09am 12.5 7.4 10.6 88 1.0 N 28 46 15 25 1003.7 1003.8 0.2
27/11:00am 13.6 8.4 10.2 80 1.8 N 28 44 15 24 1003.7 1003.8 0.2
27/10:30am 13.5 8.2 9.9 79 1.9 N 28 39 15 21 1004.0 1004.1 0.0
27/10:00am 14.1 9.2 9.9 76 2.2 N 26 39 14 21 1004.3 1004.4 0.0
27/09:30am 12.8 7.3 9.1 78 1.9 N 28 39 15 21 1004.5 1004.6 0.0
27/09:00am 11.4 7.0 8.8 84 1.3 N 22 35 12 19 1004.3 1004.4 13.6
27/08:30am 10.7 5.3 7.8 82 1.4 N 26 35 14 19 1004.8 1004.8 13.6
27/08:00am 10.3 6.1 8.1 86 1.1 N 20 32 11 17 1005.0 1005.0 13.6
27/07:30am 10.1 6.0 8.0 87 1.0 N 19 26 10 14 1003.8 1003.9 13.6
27/07:00am 10.3 5.8 8.4 88 0.9 N 22 28 12 15 1004.5 1004.6 13.4
27/06:30am 10.3 5.9 9.1 92 0.6 N 22 30 12 16 1003.9 1004.0 13.4
27/06:00am 10.6 5.6 9.4 92 0.6 NW 26 37 14 20 1004.2 1004.3 13.2
27/05:30am 10.8 8.1 10.2 96 0.3 N 15 20 8 11 1004.0 1004.1 12.4
27/05:00am 10.9 7.8 10.3 96 0.3 NNW 17 22 9 12 1004.3 1004.4 12.2
27/04:30am 11.1 7.7 10.5 96 0.3 NW 19 24 10 13 1004.3 1004.4 11.6
27/04:00am 11.3 9.5 10.8 97 0.3 NW 11 20 6 11 1004.5 1004.6 10.0
27/03:30am 11.2 10.1 10.7 97 0.3 WNW 7 9 4 5 1003.8 1003.9 9.4
27/03:00am 11.3 9.1 10.8 97 0.3 NNW 13 19 7 10 1005.0 1005.0 7.8
27/02:30am 11.4 10.4 10.9 97 0.3 WSW 7 15 4 8 1003.4 1003.5 7.0
27/02:00am 11.7 8.5 11.2 97 0.3 W 19 24 10 13 1004.9 1004.9 6.4
27/01:30am 12.0 9.2 11.4 96 0.3 WSW 17 20 9 11 1004.6 1004.7 4.0
27/01:00am 12.7 9.1 11.9 95 0.4 W 22 32 12 17 1004.6 1004.7 2.0
27/12:30am 14.6 12.8 10.8 78 2.0 N 11 17 6 9 1004.3 1004.4 0.0
27/12:00am 14.9 12.2 10.3 74 2.4 N 15 22 8 12 1005.2 1005.2 0.0
 
Date/Time
WST
Temp
°C
App
Temp
°C
Dew
Point
°C
Rel
Hum
%
Delta-T
°C
Wind Press
QNH
hPa
Press
MSL
hPa
Rain since
9am
mm
Dir  Spd
km/h
Gust
km/h
Spd
kts
Gust
kts
26/11:30pm 14.5 11.9 9.5 72 2.6 N 13 15 7 8 1005.7 1005.7 0.0
26/11:00pm 15.4 12.0 9.1 66 3.3 NW 17 26 9 14 1006.0 1006.0 0.0
26/10:30pm 16.9 11.2 8.3 57 4.4 N 28 41 15 22 1006.8 1006.8 0.0
26/10:00pm 16.7 11.8 7.1 53 4.8 N 22 33 12 18 1007.0 1007.0 0.0
26/09:30pm 16.9 11.5 6.4 50 5.2 NNW 24 33 13 18 1006.8 1006.8 0.0
26/09:00pm 16.8 10.9 6.0 49 5.3 N 26 39 14 21 1007.1 1007.1 0.0
26/08:30pm 16.5 11.0 6.1 50 5.1 N 24 33 13 18 1007.6 1007.7 0.0
26/08:00pm 17.0 11.1 5.9 48 5.5 N 26 35 14 19 1008.1 1008.2 0.0
26/07:30pm 16.6 11.1 6.1 50 5.2 N 24 35 13 19 1008.3 1008.4 0.0
26/07:00pm 16.2 10.9 6.6 53 4.8 N 24 30 13 16 1008.5 1008.6 0.0
26/06:30pm 15.8 11.6 7.3 57 4.3 N 19 30 10 16 1008.7 1008.8 0.0
26/06:00pm 15.3 11.4 8.5 64 3.5 N 19 22 10 12 1008.8 1008.9 0.0
26/05:30pm 14.9 11.7 8.6 66 3.2 N 15 20 8 11 1009.0 1009.1 0.0
26/05:00pm 14.9 12.3 9.5 70 2.8 N 13 17 7 9 1009.1 1009.2 0.0
26/04:30pm 15.5 13.0 9.6 68 3.1 N 13 17 7 9 1009.3 1009.4 0.0
26/04:00pm 16.2 13.7 9.8 66 3.4 NNW 13 15 7 8 1009.7 1009.7 0.0
26/03:30pm 16.5 13.9 9.2 62 3.8 NNW 13 17 7 9 1010.0 1010.0 0.0
26/03:00pm 16.4 13.2 8.6 60 4.0 N 15 19 8 10 1010.1 1010.1 0.0
26/02:30pm 16.7 13.0 8.1 57 4.4 N 17 24 9 13 1010.4 1010.4 0.0
26/02:00pm 16.3 14.1 9.3 63 3.7 N 11 15 6 8 1010.6 1010.6 0.0
26/01:30pm 16.0 13.6 8.5 61 3.9 N 11 17 6 9 1011.0 1011.0 0.0
26/01:00pm 15.7 13.6 8.2 61 3.8 N 9 15 5 8 1011.6 1011.7 0.0
26/12:30pm 15.5 12.0 7.0 57 4.2 N 15 20 8 11 1012.0 1012.1 0.0
26/12:00pm 15.3 10.6 6.1 54 4.5 N 20 26 11 14 1012.4 1012.5 0.0
26/11:30am 15.3 9.8 5.8 53 4.6 N 24 33 13 18 1012.9 1013.0 0.0
26/11:00am 14.8 8.8 5.3 53 4.5 N 26 35 14 19 1013.7 1013.8 0.0
26/10:30am 14.5 7.6 4.5 51 4.7 N 30 41 16 22 1013.9 1014.0 0.0
26/10:00am 14.1 6.8 4.4 52 4.5 N 32 43 17 23 1014.2 1014.3 0.0
26/09:30am 13.9 6.3 3.7 50 4.7 N 33 46 18 25 1014.6 1014.6 0.0
26/09:00am 13.4 5.9 3.5 51 4.5 N 32 43 17 23 1014.7 1014.7 0.0
26/08:30am 12.7 5.6 3.6 54 4.1 NNE 30 41 16 22 1015.0 1015.0 0.0
26/08:00am 11.3 5.4 3.8 60 3.4 NNE 24 33 13 18 1015.3 1015.4 0.0
26/07:30am 10.8 4.4 3.4 60 3.3 NNE 26 35 14 19 1015.4 1015.5 0.0
26/07:00am 10.5 4.1 3.3 61 3.2 NNE 26 35 14 19 1015.1 1015.2 0.0
26/06:30am 10.5 5.4 3.1 60 3.3 NE 19 28 10 15 1015.7 1015.8 0.0
26/06:00am 10.8 5.5 3.1 59 3.4 NE 20 28 11 15 1016.0 1016.1 0.0
26/05:30am 10.8 5.7 3.1 59 3.4 NE 19 26 10 14 1016.1 1016.2 0.0
26/05:00am 10.6 5.6 3.6 62 3.1 NE 19 26 10 14 1016.1 1016.2 0.0
26/04:30am 10.9 5.9 3.7 61 3.2 NE 19 26 10 14 1016.3 1016.4 0.0
26/04:00am 11.2 6.2 3.7 60 3.4 NE 19 26 10 14 1016.4 1016.5 0.0
26/03:30am 11.5 6.3 3.8 59 3.5 NE 20 30 11 16 1016.6 1016.7 0.0
26/03:00am 11.3 6.2 4.1 61 3.3 NE 20 26 11 14 1016.8 1016.9 0.0
26/02:30am 11.1 6.2 4.3 63 3.1 NE 19 24 10 13 1017.4 1017.5 0.0
26/02:00am 9.5 5.8 4.7 72 2.2 NE 13 19 7 10 1017.6 1017.7 0.0
26/01:30am 8.5 5.3 5.3 80 1.5 ENE 11 11 6 6 1018.5 1018.6 0.0
26/01:00am 8.3 5.5 5.2 81 1.4 ENE 9 11 5 6 1018.8 1018.9 0.0
26/12:30am 8.2 5.0 5.3 82 1.3 ENE 11 13 6 7 1018.8 1018.9 0.0
26/12:00am 7.8 4.6 5.3 84 1.1 NE 11 13 6 7 1019.0 1019.2 0.0
 
Date/Time
WST
Temp
°C
App
Temp
°C
Dew
Point
°C
Rel
Hum
%
Delta-T
°C
Wind Press
QNH
hPa
Press
MSL
hPa
Rain since
9am
mm
Dir  Spd
km/h
Gust
km/h
Spd
kts
Gust
kts
25/11:30pm 8.1 4.5 5.2 82 1.3 ENE 13 15 7 8 1019.5 1019.6 0.0
25/11:00pm 7.7 4.2 5.5 86 1.0 ENE 13 13 7 7 1019.8 1019.9 0.0
25/10:30pm 8.1 6.3 5.6 84 1.1 ESE 4 7 2 4 1020.4 1020.5 0.0
25/10:00pm 8.2 5.4 5.1 81 1.4 E 9 11 5 6 1020.0 1020.1 0.0
25/09:30pm 8.0 5.3 5.5 84 1.1 ENE 9 11 5 6 1020.0 1020.1 0.0
25/09:00pm 9.2 6.2 5.8 79 1.6 ENE 11 15 6 8 1020.1 1020.2 0.0
25/08:30pm 8.2 5.5 5.5 83 1.2 ENE 9 11 5 6 1020.5 1020.6 0.0
25/08:00pm 8.6 6.0 6.1 84 1.2 E 9 11 5 6 1020.4 1020.5 0.0
25/07:30pm 8.6 6.0 6.2 85 1.1 NE 9 11 5 6 1020.4 1020.5 0.0
25/07:00pm 9.1 7.0 6.5 84 1.2 E 7 9 4 5 1020.5 1020.6 0.0
25/06:30pm 10.0 7.4 6.0 76 1.9 E 9 11 5 6 1020.4 1020.5 0.0
25/06:00pm 11.1 8.4 5.4 68 2.6 E 9 13 5 7 1020.3 1020.4 0.0
25/05:30pm 12.5 9.2 6.3 66 3.0 ENE 13 15 7 8 1020.3 1020.4 0.0
25/05:00pm 13.8 9.9 5.4 57 4.0 ENE 15 20 8 11 1020.3 1020.4 0.0
25/04:30pm 15.9 11.5 4.9 48 5.3 ENE 17 22 9 12 1020.5 1020.6 0.0
25/04:00pm 16.4 12.1 5.1 47 5.4 ENE 17 24 9 13 1020.6 1020.7 0.0
25/03:30pm 16.9 12.7 5.8 48 5.4 ENE 17 24 9 13 1020.9 1021.0 0.0
25/03:00pm 17.0 13.0 6.5 50 5.2 ENE 17 22 9 12 1021.1 1021.2 0.0
25/02:30pm 17.1 13.1 6.6 50 5.2 ENE 17 24 9 13 1021.6 1021.7 0.0
25/02:00pm 16.5 12.3 5.8 49 5.2 ENE 17 24 9 13 1021.8 1021.9 0.0
25/01:30pm 16.5 12.0 6.1 50 5.1 ENE 19 28 10 15 1022.2 1022.3 0.0
25/01:00pm 16.1 11.5 6.5 53 4.7 ENE 20 30 11 16 1022.6 1022.7 0.0
25/12:30pm 15.5 10.8 6.2 54 4.6 ENE 20 32 11 17 1023.2 1023.4 0.0
25/12:00pm 14.6 10.0 6.4 58 4.0 ENE 20 28 11 15 1024.1 1024.2 0.0
25/11:30am 14.3 9.7 6.4 59 3.8 ENE 20 30 11 16 1024.9 1025.0 0.0
25/11:00am 13.6 9.0 6.7 63 3.3 ENE 20 28 11 15 1025.7 1025.8 0.0
25/10:30am 12.5 7.0 5.7 63 3.2 ENE 24 32 13 17 1025.9 1026.0 0.0
25/10:00am 11.6 6.1 6.1 69 2.6 ENE 24 32 13 17 1026.0 1026.1 0.0
25/09:30am 10.3 4.9 6.5 77 1.8 ENE 24 35 13 19 1026.2 1026.3 0.0
25/09:00am 8.7 3.6 5.8 82 1.3 E 22 28 12 15 1026.3 1026.4 0.2
25/08:30am 7.7 3.1 5.5 86 1.0 E 19 26 10 14 1026.3 1026.4 0.2
25/08:00am 6.4 2.8 5.0 91 0.6 E 13 20 7 11 1026.3 1026.4 0.2
25/07:30am 4.7 1.3 3.8 94 0.4 E 11 15 6 8 1026.2 1026.3 0.2
25/07:00am 3.6 0.4 3.0 96 0.2 ESE 9 13 5 7 1025.8 1025.9 0.2
25/06:30am 3.4 0.2 2.8 96 0.2 ESE 9 15 5 8 1025.4 1025.5 0.2
25/06:00am 3.7 0.1 3.1 96 0.2 ESE 11 15 6 8 1025.2 1025.3 0.2
25/05:30am 3.5 0.3 3.1 97 0.2 ESE 9 13 5 7 1024.9 1025.0 0.2
25/05:00am 0.8 -2.5 -0.1 94 0.3 ESE 7 9 4 5 1024.8 1024.9 0.2
25/04:30am 3.3 0.1 2.9 97 0.2 ESE 9 11 5 6 1024.7 1024.8 0.2
25/04:00am 1.9 -1.2 1.3 96 0.2 E 7 9 4 5 1024.7 1024.8 0.2
25/03:30am 1.2 -1.9 -0.1 91 0.5 E 6 7 3 4 1024.7 1024.8 0.2
25/03:00am 3.9 0.7 3.3 96 0.2 ESE 9 13 5 7 1024.8 1024.9 0.2

Other Formats:

Comma delimited format used in spreadsheet applications
http://www.bom.gov.au/fwo/IDW60801/IDW60801.95625.axf

JavaScript Object Notation format (JSON) in row-major order
http://www.bom.gov.au/fwo/IDW60801/IDW60801.95625.json